createdAt,value
2018-06-30T00:02:23.802Z,21.54
2018-06-30T00:04:53.334Z,21.56
2018-06-30T00:07:23.436Z,21.56
2018-06-30T00:09:52.071Z,21.52
2018-06-30T00:12:20.760Z,21.40
2018-06-30T00:14:49.416Z,21.23
2018-06-30T00:17:18.378Z,21.22
2018-06-30T00:19:47.022Z,21.14
2018-06-30T00:22:15.782Z,21.15
2018-06-30T00:24:44.945Z,21.21
2018-06-30T00:27:18.856Z,21.18
2018-06-30T00:29:47.922Z,21.20
2018-06-30T00:32:16.573Z,21.06
2018-06-30T00:34:45.843Z,21.10
2018-06-30T00:37:15.496Z,21.12
2018-06-30T00:39:44.186Z,21.01
2018-06-30T00:42:12.923Z,21.00
2018-06-30T00:44:42.162Z,21.04
2018-06-30T00:47:10.855Z,21.02
2018-06-30T00:49:39.972Z,21.04
2018-06-30T00:52:08.984Z,20.99
2018-06-30T00:54:38.314Z,20.98
2018-06-30T00:57:06.999Z,20.95
2018-06-30T00:59:35.757Z,20.89
2018-06-30T01:02:05.318Z,20.85
2018-06-30T01:04:34.093Z,20.80
2018-06-30T01:07:03.014Z,20.70
2018-06-30T01:09:31.724Z,20.63
2018-06-30T01:12:00.701Z,20.64
2018-06-30T01:14:29.806Z,20.68
2018-06-30T01:16:58.621Z,20.66
2018-06-30T01:19:27.248Z,20.57
2018-06-30T01:21:56.680Z,20.50
2018-06-30T01:24:26.130Z,20.48
2018-06-30T01:26:55.386Z,20.33
2018-06-30T01:29:23.999Z,19.88
2018-06-30T01:31:52.685Z,20.21
2018-06-30T01:34:21.307Z,20.33
2018-06-30T01:36:50.009Z,20.39
2018-06-30T01:39:19.566Z,20.40
2018-06-30T01:41:49.163Z,20.40
2018-06-30T01:44:18.093Z,20.33
2018-06-30T01:46:46.966Z,20.32
2018-06-30T01:49:15.587Z,20.23
2018-06-30T01:51:44.244Z,20.19
2018-06-30T01:54:13.711Z,20.12
2018-06-30T01:56:42.356Z,20.02
2018-06-30T01:59:11.280Z,20.00
2018-06-30T02:01:40.263Z,20.07
2018-06-30T02:04:08.979Z,20.09
2018-06-30T02:06:38.356Z,20.11
2018-06-30T02:09:09.232Z,20.03
2018-06-30T02:11:37.923Z,19.93
2018-06-30T02:14:06.860Z,19.97
2018-06-30T02:16:35.567Z,19.96
2018-06-30T02:19:04.579Z,20.00
2018-06-30T02:21:33.838Z,19.93
2018-06-30T02:24:03.155Z,19.91
2018-06-30T02:26:31.845Z,19.95
2018-06-30T02:29:00.633Z,19.96
2018-06-30T02:31:29.399Z,19.93
2018-06-30T02:33:58.103Z,19.81
2018-06-30T02:36:26.916Z,19.69
2018-06-30T02:38:56.171Z,19.63
2018-06-30T02:41:25.010Z,19.58
2018-06-30T02:43:53.709Z,19.45
2018-06-30T02:46:24.250Z,19.31
2018-06-30T02:48:52.857Z,19.15
2018-06-30T02:51:21.622Z,19.00
2018-06-30T02:53:50.919Z,18.94
2018-06-30T02:56:20.071Z,18.90
2018-06-30T02:58:48.645Z,18.94
2018-06-30T03:01:22.666Z,19.03
2018-06-30T03:03:51.395Z,19.10
2018-06-30T03:06:20.419Z,19.16
2018-06-30T03:08:49.202Z,19.10
2018-06-30T03:11:17.851Z,18.70
2018-06-30T03:13:47.344Z,19.08
2018-06-30T03:16:17.529Z,19.05
2018-06-30T03:18:47.715Z,19.08
2018-06-30T03:21:16.372Z,19.07
2018-06-30T03:23:45.094Z,19.08
2018-06-30T03:26:14.123Z,19.11
2018-06-30T03:28:43.685Z,19.04
2018-06-30T03:31:12.310Z,19.06
2018-06-30T03:33:40.974Z,19.09
2018-06-30T03:36:09.713Z,19.01
2018-06-30T03:38:38.767Z,19.05
2018-06-30T03:41:07.415Z,19.11
2018-06-30T03:43:36.597Z,19.14
2018-06-30T03:46:05.586Z,19.16
2018-06-30T03:48:35.374Z,19.18
2018-06-30T03:51:04.031Z,19.23
2018-06-30T03:53:32.826Z,19.23
2018-06-30T03:56:01.589Z,19.26
2018-06-30T03:58:31.392Z,19.21
2018-06-30T04:01:00.066Z,19.10
2018-06-30T04:03:28.763Z,19.07
2018-06-30T04:05:57.721Z,19.05
2018-06-30T04:08:26.461Z,19.04
2018-06-30T04:10:55.439Z,19.06
2018-06-30T04:13:24.048Z,19.09
2018-06-30T04:15:53.439Z,19.07
2018-06-30T04:18:22.070Z,19.00
2018-06-30T04:20:50.831Z,19.03
2018-06-30T04:23:19.575Z,19.08
2018-06-30T04:25:48.238Z,19.16
2018-06-30T04:28:16.941Z,19.21
2018-06-30T04:30:45.649Z,19.11
2018-06-30T04:33:14.278Z,19.13
2018-06-30T04:35:44.352Z,19.13
2018-06-30T04:38:12.958Z,19.15
2018-06-30T04:40:41.947Z,19.12
2018-06-30T04:43:10.650Z,19.11
2018-06-30T04:45:39.314Z,19.18
2018-06-30T04:48:08.607Z,19.24
2018-06-30T04:50:37.492Z,19.18
2018-06-30T04:53:06.245Z,19.21
2018-06-30T04:55:35.030Z,19.25
2018-06-30T04:58:03.815Z,19.22
2018-06-30T05:00:32.464Z,19.30
2018-06-30T05:03:01.610Z,19.33
2018-06-30T05:05:30.461Z,19.39
2018-06-30T05:07:59.100Z,19.35
2018-06-30T05:10:28.337Z,19.38
2018-06-30T05:12:57.281Z,19.46
2018-06-30T05:15:26.977Z,19.25
2018-06-30T05:17:55.705Z,19.40
2018-06-30T05:20:25.252Z,19.52
2018-06-30T05:22:54.099Z,19.54
2018-06-30T05:25:22.923Z,19.60
2018-06-30T05:27:51.562Z,19.67
2018-06-30T05:30:20.380Z,19.76
2018-06-30T05:32:49.440Z,19.81
2018-06-30T05:35:18.392Z,19.75
2018-06-30T05:37:47.216Z,19.81
2018-06-30T05:40:16.338Z,19.88
2018-06-30T05:42:46.295Z,19.81
2018-06-30T05:45:15.170Z,19.90
2018-06-30T05:47:44.436Z,20.07
2018-06-30T05:50:13.145Z,20.20
2018-06-30T05:52:42.273Z,20.28
2018-06-30T05:55:10.985Z,20.09
2018-06-30T05:57:39.840Z,20.24
2018-06-30T06:00:08.737Z,20.36
2018-06-30T06:02:37.589Z,20.52
2018-06-30T06:05:07.086Z,20.61
2018-06-30T06:07:35.880Z,20.73
2018-06-30T06:10:05.154Z,20.84
2018-06-30T06:12:33.814Z,20.89
2018-06-30T06:15:02.544Z,20.90
2018-06-30T06:17:32.342Z,20.88
2018-06-30T06:20:01.049Z,21.01
2018-06-30T06:22:29.701Z,21.06
2018-06-30T06:24:58.467Z,21.20
2018-06-30T06:27:27.522Z,21.32
2018-06-30T06:29:56.231Z,21.41
2018-06-30T06:32:24.950Z,21.30
2018-06-30T06:34:53.814Z,21.28
2018-06-30T06:37:22.499Z,21.36
2018-06-30T06:39:51.546Z,21.45
2018-06-30T06:42:20.527Z,21.61
2018-06-30T06:44:49.209Z,21.79
2018-06-30T06:47:17.859Z,21.93
2018-06-30T06:49:47.151Z,22.02
2018-06-30T06:52:15.949Z,22.16
2018-06-30T06:54:46.327Z,22.17
2018-06-30T06:57:15.760Z,22.19
2018-06-30T06:59:44.469Z,22.27
2018-06-30T07:02:13.138Z,22.40
2018-06-30T07:04:41.868Z,22.47
2018-06-30T07:07:11.151Z,22.58
2018-06-30T07:09:39.826Z,22.72
2018-06-30T07:12:10.342Z,22.83
2018-06-30T07:14:39.416Z,22.91
2018-06-30T07:17:08.346Z,22.97
2018-06-30T07:19:37.558Z,22.96
2018-06-30T07:22:06.341Z,23.08
2018-06-30T07:24:35.693Z,23.20
2018-06-30T07:27:04.536Z,23.25
2018-06-30T07:29:33.299Z,23.36
2018-06-30T07:32:02.144Z,23.45
2018-06-30T07:34:31.677Z,23.45
2018-06-30T07:37:00.650Z,23.51
2018-06-30T07:39:29.370Z,23.61
2018-06-30T07:41:58.108Z,23.72
2018-06-30T07:44:27.885Z,23.76
2018-06-30T07:46:56.542Z,23.85
2018-06-30T07:49:25.260Z,23.99
2018-06-30T07:51:54.628Z,24.06
2018-06-30T07:54:23.257Z,24.20
2018-06-30T07:56:51.915Z,24.25
2018-06-30T07:59:20.564Z,24.34
2018-06-30T08:01:49.298Z,24.48
2018-06-30T08:04:18.103Z,24.59
2018-06-30T08:06:46.823Z,24.66
2018-06-30T08:09:16.181Z,24.67
2018-06-30T08:11:44.852Z,24.80
2018-06-30T08:14:13.602Z,24.93
2018-06-30T08:16:42.489Z,24.87
2018-06-30T08:19:11.170Z,24.91
2018-06-30T08:21:39.905Z,25.08
2018-06-30T08:24:09.164Z,25.22
2018-06-30T08:26:37.994Z,25.28
2018-06-30T08:29:06.732Z,25.38
2018-06-30T08:31:35.413Z,25.41
2018-06-30T08:34:04.099Z,25.54
2018-06-30T08:36:33.005Z,25.64
2018-06-30T08:39:01.806Z,25.77
2018-06-30T08:41:30.750Z,25.78
2018-06-30T08:43:59.589Z,25.82
2018-06-30T08:46:28.388Z,25.93
2018-06-30T08:48:58.282Z,25.96
2018-06-30T08:51:26.967Z,26.07
2018-06-30T08:53:55.890Z,26.14
2018-06-30T08:56:24.638Z,26.25
2018-06-30T08:58:53.565Z,26.30
2018-06-30T09:01:22.294Z,26.37
2018-06-30T09:03:51.048Z,26.42
2018-06-30T09:06:19.822Z,26.53
2018-06-30T09:08:48.562Z,26.65
2018-06-30T09:11:17.288Z,26.62
2018-06-30T09:13:46.712Z,26.70
2018-06-30T09:16:16.200Z,26.69
2018-06-30T09:18:44.878Z,26.77
2018-06-30T09:21:13.635Z,26.85
2018-06-30T09:23:42.839Z,26.94
2018-06-30T09:26:11.712Z,27.01
2018-06-30T09:28:41.136Z,27.14
2018-06-30T09:31:10.645Z,27.24
2018-06-30T09:33:40.098Z,27.36
2018-06-30T09:36:09.572Z,27.49
2018-06-30T09:38:38.773Z,27.97
2018-06-30T09:41:08.882Z,27.96
2018-06-30T09:43:38.394Z,28.00
2018-06-30T09:46:07.574Z,28.08
2018-06-30T09:48:36.424Z,28.12
2018-06-30T09:51:06.189Z,28.21
2018-06-30T09:53:34.894Z,28.21
2018-06-30T09:56:04.356Z,28.28
2018-06-30T09:58:33.748Z,28.35
2018-06-30T10:01:07.445Z,28.38
2018-06-30T10:03:37.219Z,28.49
2018-06-30T10:06:07.164Z,28.57
2018-06-30T10:08:35.860Z,28.60
2018-06-30T10:11:04.631Z,28.54
2018-06-30T10:13:33.951Z,28.59
2018-06-30T10:16:02.781Z,28.55
2018-06-30T10:18:32.150Z,28.64
2018-06-30T10:21:01.690Z,28.68
2018-06-30T10:23:30.324Z,28.74
2018-06-30T10:25:59.743Z,28.87
2018-06-30T10:28:29.166Z,29.00
2018-06-30T10:30:58.046Z,29.05
2018-06-30T10:33:27.225Z,29.14
2018-06-30T10:35:56.968Z,29.34
2018-06-30T10:38:25.655Z,29.48
2018-06-30T10:40:54.436Z,29.50
2018-06-30T10:43:23.560Z,29.59
2018-06-30T10:45:52.247Z,29.62
2018-06-30T10:48:21.032Z,29.60
2018-06-30T10:50:49.684Z,29.62
2018-06-30T10:53:19.942Z,29.72
2018-06-30T10:55:48.647Z,29.84
2018-06-30T10:58:17.450Z,29.97
2018-06-30T11:00:46.103Z,30.00
2018-06-30T11:03:15.013Z,30.03
2018-06-30T11:05:50.009Z,30.01
2018-06-30T11:08:18.767Z,29.93
2018-06-30T11:10:47.469Z,29.90
2018-06-30T11:13:16.159Z,29.76
2018-06-30T11:15:45.317Z,29.95
2018-06-30T11:18:14.730Z,30.02
2018-06-30T11:20:44.423Z,30.18
2018-06-30T11:23:15.378Z,30.33
2018-06-30T11:25:45.299Z,30.50
2018-06-30T11:28:16.191Z,30.66
2018-06-30T11:30:45.978Z,30.63
2018-06-30T11:33:17.048Z,30.64
2018-06-30T11:35:47.275Z,30.82
2018-06-30T11:38:17.716Z,30.69
2018-06-30T11:40:46.584Z,30.77
2018-06-30T11:43:15.336Z,30.81
2018-06-30T11:45:44.260Z,30.57
2018-06-30T11:48:13.010Z,30.94
2018-06-30T11:50:44.167Z,31.05
2018-06-30T11:53:16.042Z,30.96
2018-06-30T11:55:51.390Z,31.00
2018-06-30T11:58:20.144Z,30.96
2018-06-30T12:00:48.977Z,30.79
2018-06-30T12:03:17.853Z,30.53
2018-06-30T12:05:48.453Z,30.51
2018-06-30T12:08:18.787Z,30.55
2018-06-30T12:10:48.955Z,30.69
2018-06-30T12:13:20.903Z,30.80
2018-06-30T12:15:49.867Z,31.10
2018-06-30T12:18:22.575Z,31.19
2018-06-30T12:20:51.359Z,31.05
2018-06-30T12:23:20.160Z,31.25
2018-06-30T12:25:49.387Z,31.28
2018-06-30T12:28:18.575Z,31.35
2018-06-30T12:30:48.019Z,31.34
2018-06-30T12:33:19.720Z,31.37
2018-06-30T12:35:48.445Z,31.49
2018-06-30T12:38:19.257Z,31.65
2018-06-30T12:40:49.203Z,31.75
2018-06-30T12:43:18.348Z,31.97
2018-06-30T12:45:47.838Z,32.00
2018-06-30T12:48:17.003Z,32.30
2018-06-30T12:50:47.002Z,32.32
2018-06-30T12:53:15.741Z,32.23
2018-06-30T12:55:48.214Z,33.58
2018-06-30T12:58:20.092Z,35.07
2018-06-30T13:00:49.242Z,35.89
2018-06-30T13:03:17.914Z,35.93
2018-06-30T13:05:46.608Z,35.21
2018-06-30T13:08:16.653Z,35.78
2018-06-30T13:10:46.919Z,36.79
2018-06-30T13:13:15.612Z,38.10
2018-06-30T13:15:44.269Z,38.37
2018-06-30T13:18:13.105Z,38.89
2018-06-30T13:20:41.831Z,39.17
2018-06-30T13:23:10.467Z,39.94
2018-06-30T13:25:39.142Z,39.68
2018-06-30T13:28:07.949Z,39.24
2018-06-30T13:30:36.821Z,38.54
2018-06-30T13:33:05.535Z,39.34
2018-06-30T13:35:34.188Z,39.68
2018-06-30T13:38:02.988Z,39.90
2018-06-30T13:40:31.618Z,39.88
2018-06-30T13:43:00.314Z,39.00
2018-06-30T13:45:29.153Z,39.62
2018-06-30T13:47:57.857Z,40.01
2018-06-30T13:50:27.540Z,39.40
2018-06-30T13:52:56.625Z,39.88
2018-06-30T13:55:26.645Z,39.92
2018-06-30T13:57:55.935Z,39.54
2018-06-30T14:00:26.147Z,39.30
2018-06-30T14:02:55.434Z,38.80
2018-06-30T14:05:24.767Z,38.77
2018-06-30T14:07:54.212Z,39.08
2018-06-30T14:10:23.601Z,39.16
2018-06-30T14:12:53.136Z,39.10
2018-06-30T14:15:21.870Z,39.15
2018-06-30T14:17:50.521Z,38.62
2018-06-30T14:20:19.211Z,38.46
2018-06-30T14:22:47.921Z,38.10
2018-06-30T14:25:17.090Z,38.57
2018-06-30T14:27:46.342Z,38.57
2018-06-30T14:30:15.780Z,38.66
2018-06-30T14:32:45.009Z,37.88
2018-06-30T14:35:14.193Z,37.37
2018-06-30T14:37:44.404Z,36.74
2018-06-30T14:40:18.060Z,36.43
2018-06-30T14:42:47.215Z,36.32
2018-06-30T14:45:16.618Z,35.95
2018-06-30T14:47:46.507Z,35.83
2018-06-30T14:50:15.852Z,35.95
2018-06-30T14:52:45.109Z,36.42
2018-06-30T14:55:14.937Z,36.59
2018-06-30T14:57:45.404Z,36.62
2018-06-30T15:00:15.132Z,36.65
2018-06-30T15:02:43.887Z,35.54
2018-06-30T15:05:12.747Z,36.11
2018-06-30T15:07:41.369Z,36.06
2018-06-30T15:10:10.777Z,36.13
2018-06-30T15:12:39.436Z,36.23
2018-06-30T15:15:09.041Z,36.10
2018-06-30T15:17:37.897Z,35.63
2018-06-30T15:20:06.822Z,35.84
2018-06-30T15:22:35.782Z,36.05
2018-06-30T15:25:05.499Z,35.81
2018-06-30T15:27:35.135Z,35.13
2018-06-30T15:30:05.590Z,34.81
2018-06-30T15:32:34.886Z,34.74
2018-06-30T15:35:03.727Z,34.73
2018-06-30T15:37:33.008Z,34.70
2018-06-30T15:40:02.360Z,34.76
2018-06-30T15:42:31.767Z,34.71
2018-06-30T15:45:03.701Z,34.36
2018-06-30T15:47:33.117Z,34.14
2018-06-30T15:50:02.606Z,33.87
2018-06-30T15:52:32.691Z,33.95
2018-06-30T15:55:01.992Z,33.97
2018-06-30T15:57:30.847Z,33.90
2018-06-30T15:59:59.588Z,33.71
2018-06-30T16:02:28.241Z,33.87
2018-06-30T16:04:57.243Z,33.79
2018-06-30T16:07:26.392Z,33.64
2018-06-30T16:09:55.161Z,33.31
2018-06-30T16:12:23.791Z,33.16
2018-06-30T16:14:52.478Z,32.99
2018-06-30T16:17:24.676Z,32.65
2018-06-30T16:19:53.351Z,32.25
2018-06-30T16:22:22.032Z,32.29
2018-06-30T16:24:50.775Z,32.23
2018-06-30T16:27:19.409Z,32.11
2018-06-30T16:29:48.303Z,31.93
2018-06-30T16:32:17.145Z,31.68
2018-06-30T16:34:46.422Z,31.48
2018-06-30T16:37:16.445Z,31.27
2018-06-30T16:39:45.858Z,31.38
2018-06-30T16:42:14.693Z,31.40
2018-06-30T16:44:43.979Z,31.40
2018-06-30T16:47:12.833Z,31.37
2018-06-30T16:49:43.014Z,31.13
2018-06-30T16:52:12.112Z,31.22
2018-06-30T16:54:41.115Z,31.18
2018-06-30T16:57:11.976Z,31.04
2018-06-30T16:59:41.232Z,30.93
2018-06-30T17:02:10.863Z,30.80
2018-06-30T17:04:40.302Z,30.66
2018-06-30T17:07:09.154Z,30.63
2018-06-30T17:09:38.033Z,30.48
2018-06-30T17:12:09.795Z,30.40
2018-06-30T17:14:38.764Z,30.33
2018-06-30T17:17:08.054Z,30.28
2018-06-30T17:19:36.791Z,30.26
2018-06-30T17:22:06.153Z,30.25
2018-06-30T17:24:34.849Z,30.14
2018-06-30T17:27:03.569Z,30.07
2018-06-30T17:29:32.327Z,30.00
2018-06-30T17:32:01.704Z,29.86
2018-06-30T17:34:30.525Z,29.77
2018-06-30T17:36:59.564Z,29.68
2018-06-30T17:39:28.220Z,29.65
2018-06-30T17:41:56.866Z,29.67
2018-06-30T17:44:25.700Z,29.66
2018-06-30T17:46:54.513Z,29.66
2018-06-30T17:49:23.413Z,29.49
2018-06-30T17:51:52.184Z,29.29
2018-06-30T17:54:20.977Z,29.10
2018-06-30T17:56:51.358Z,28.94
2018-06-30T17:59:20.107Z,28.93
2018-06-30T18:01:48.837Z,28.99
2018-06-30T18:04:17.649Z,28.95
2018-06-30T18:06:46.355Z,28.79
2018-06-30T18:09:15.304Z,28.71
2018-06-30T18:11:43.997Z,28.72
2018-06-30T18:14:12.854Z,28.79
2018-06-30T18:16:42.280Z,28.82
2018-06-30T18:19:11.011Z,28.79
2018-06-30T18:21:39.771Z,28.73
2018-06-30T18:24:09.482Z,28.67
2018-06-30T18:26:38.286Z,28.56
2018-06-30T18:29:07.611Z,28.37
2018-06-30T18:31:37.141Z,28.31
2018-06-30T18:34:05.947Z,28.25
2018-06-30T18:36:35.159Z,28.32
2018-06-30T18:39:04.632Z,28.21
2018-06-30T18:41:34.076Z,28.13
2018-06-30T18:44:02.787Z,27.91
2018-06-30T18:46:31.450Z,28.00
2018-06-30T18:49:00.171Z,28.09
2018-06-30T18:51:29.772Z,28.00
2018-06-30T18:53:59.057Z,28.00
2018-06-30T18:56:28.829Z,27.97
2018-06-30T18:58:58.149Z,28.00
2018-06-30T19:01:26.863Z,27.98
2018-06-30T19:03:57.497Z,27.94
2018-06-30T19:06:26.156Z,27.90
2018-06-30T19:08:54.917Z,27.86
2018-06-30T19:11:23.609Z,27.78
2018-06-30T19:13:52.369Z,27.78
2018-06-30T19:16:21.117Z,27.76
2018-06-30T19:18:50.390Z,27.83
2018-06-30T19:21:19.118Z,27.77
2018-06-30T19:23:47.901Z,27.74
2018-06-30T19:26:18.604Z,27.64
2018-06-30T19:28:47.377Z,27.62
2018-06-30T19:31:16.716Z,27.56
2018-06-30T19:33:45.647Z,27.53
2018-06-30T19:36:14.924Z,27.51
2018-06-30T19:38:44.429Z,27.47
2018-06-30T19:41:13.239Z,27.36
2018-06-30T19:43:42.555Z,27.33
2018-06-30T19:46:12.476Z,27.30
2018-06-30T19:48:41.193Z,27.17
2018-06-30T19:51:10.013Z,27.19
2018-06-30T19:53:38.772Z,27.16
2018-06-30T19:56:07.615Z,27.19
2018-06-30T19:58:36.663Z,27.15
2018-06-30T20:01:05.668Z,27.03
2018-06-30T20:03:34.613Z,26.98
2018-06-30T20:06:04.336Z,26.98
2018-06-30T20:08:33.319Z,26.85
2018-06-30T20:11:02.813Z,26.72
2018-06-30T20:13:31.965Z,26.64
2018-06-30T20:16:01.772Z,26.60
2018-06-30T20:18:30.852Z,26.60
2018-06-30T20:20:59.835Z,26.54
2018-06-30T20:23:29.112Z,26.41
2018-06-30T20:25:57.839Z,26.35
2018-06-30T20:28:26.979Z,26.30
2018-06-30T20:30:55.805Z,26.26
2018-06-30T20:33:24.639Z,26.21
2018-06-30T20:35:53.397Z,26.19
2018-06-30T20:38:22.400Z,26.16
2018-06-30T20:40:51.120Z,26.11
2018-06-30T20:43:19.899Z,26.03
2018-06-30T20:45:49.219Z,25.96
2018-06-30T20:48:18.193Z,25.89
2018-06-30T20:50:46.983Z,25.79
2018-06-30T20:53:15.892Z,25.79
2018-06-30T20:55:44.636Z,25.75
2018-06-30T20:58:13.423Z,25.50
2018-06-30T21:00:42.108Z,25.29
2018-06-30T21:03:13.155Z,25.16
2018-06-30T21:05:42.050Z,25.10
2018-06-30T21:08:11.250Z,24.98
2018-06-30T21:10:40.373Z,24.89
2018-06-30T21:13:10.702Z,24.86
2018-06-30T21:15:39.800Z,24.72
2018-06-30T21:18:09.741Z,24.69
2018-06-30T21:20:38.694Z,24.70
2018-06-30T21:23:07.558Z,24.71
2018-06-30T21:25:36.324Z,24.59
2018-06-30T21:28:05.416Z,24.59
2018-06-30T21:30:34.328Z,24.52
2018-06-30T21:33:03.035Z,24.48
2018-06-30T21:35:32.353Z,24.44
2018-06-30T21:38:01.048Z,24.31
2018-06-30T21:40:30.091Z,24.27
2018-06-30T21:42:58.943Z,24.26
2018-06-30T21:45:28.303Z,24.30
2018-06-30T21:47:57.073Z,24.27
2018-06-30T21:50:25.941Z,24.33
2018-06-30T21:52:54.635Z,24.37
2018-06-30T21:55:23.408Z,24.39
2018-06-30T21:57:52.127Z,24.46
2018-06-30T22:00:39.655Z,24.42
2018-06-30T22:03:08.451Z,24.35
2018-06-30T22:05:37.499Z,24.33
2018-06-30T22:08:06.361Z,24.35
2018-06-30T22:10:35.024Z,24.33
2018-06-30T22:13:04.472Z,24.34
2018-06-30T22:15:33.898Z,24.30
2018-06-30T22:18:02.896Z,24.29
2018-06-30T22:20:32.183Z,24.27
2018-06-30T22:23:01.760Z,24.13
2018-06-30T22:25:30.805Z,23.93
2018-06-30T22:27:59.700Z,23.87
2018-06-30T22:30:28.468Z,23.86
2018-06-30T22:32:57.333Z,23.83
2018-06-30T22:35:26.691Z,23.72
2018-06-30T22:37:56.107Z,23.70
2018-06-30T22:40:24.837Z,23.65
2018-06-30T22:42:53.756Z,23.55
2018-06-30T22:45:22.491Z,23.51
2018-06-30T22:47:51.218Z,23.49
2018-06-30T22:50:20.055Z,23.49
2018-06-30T22:52:48.756Z,23.45
2018-06-30T22:55:18.522Z,23.44
2018-06-30T22:57:51.345Z,23.40
2018-06-30T23:00:20.703Z,23.33
2018-06-30T23:02:49.452Z,23.37
2018-06-30T23:05:18.206Z,23.36
2018-06-30T23:07:47.896Z,23.33
2018-06-30T23:10:16.958Z,23.29
2018-06-30T23:12:45.714Z,23.22
2018-06-30T23:15:14.432Z,23.17
2018-06-30T23:17:43.084Z,23.09
2018-06-30T23:20:11.712Z,22.96
2018-06-30T23:22:51.374Z,22.84
2018-06-30T23:25:20.057Z,22.79
2018-06-30T23:27:48.795Z,22.70
2018-06-30T23:30:17.672Z,22.58
2018-06-30T23:32:46.320Z,22.51
2018-06-30T23:35:14.903Z,22.39
2018-06-30T23:37:43.599Z,22.34
2018-06-30T23:40:12.236Z,22.28
2018-06-30T23:42:41.006Z,22.20
2018-06-30T23:45:09.888Z,22.16
2018-06-30T23:47:38.617Z,22.14
2018-06-30T23:50:07.363Z,22.12
2018-06-30T23:52:37.415Z,22.05
2018-06-30T23:55:07.056Z,21.96
2018-06-30T23:57:35.633Z,21.92
